Time;durP1;ratioP1;P1;durP2;ratioP2;P2;SDS_P1;SDS_P2;PMS_P1;PMS_P2;Temp;Humidity;BMP_temperature;BMP_pressure;BME280_temperature;BME280_humidity;BME280_pressure;Samples;Min_cycle;Max_cycle;Signal;HPM_P1;HPM_P2
2022/10/26 00:02:03;;;;;;;37.63;13.93;;;;;;;10.42;67.32;93889.19;5061992;28;20024;-36
2022/10/26 00:04:29;;;;;;;31.23;12.82;;;;;;;10.42;67.20;93891.19;5072580;28;20052;-35
2022/10/26 00:06:54;;;;;;;26.67;13.25;;;;;;;10.42;66.83;93891.19;5072912;28;20031;-35
2022/10/26 00:09:19;;;;;;;32.65;14.52;;;;;;;10.31;67.20;93881.16;5072546;28;20021;-35
2022/10/26 00:11:45;;;;;;;32.08;14.75;;;;;;;10.44;67.45;93885.88;5072602;28;20039;-35
2022/10/26 00:14:10;;;;;;;32.40;14.95;;;;;;;10.37;67.37;93886.56;5072457;28;20024;-35
2022/10/26 00:16:36;;;;;;;31.73;14.45;;;;;;;10.33;67.21;93889.66;5057607;28;20082;-35
2022/10/26 00:19:01;;;;;;;27.50;13.68;;;;;;;10.31;67.40;93891.47;5052464;28;20056;-35
2022/10/26 00:21:26;;;;;;;25.73;12.02;;;;;;;10.06;67.78;93873.69;5052606;28;20029;-36
2022/10/26 00:23:52;;;;;;;20.20;10.15;;;;;;;10.10;68.16;93893.41;5052301;28;20570;-35
2022/10/26 00:26:17;;;;;;;16.77;8.32;;;;;;;9.96;68.45;93887.22;5064861;28;20016;-36
2022/10/26 00:28:43;;;;;;;19.98;7.57;;;;;;;10.04;68.13;93895.56;5066543;28;20028;-35
2022/10/26 00:31:13;;;;;;;17.08;8.07;;;;;;;10.04;67.76;93901.81;5052159;28;20031;-35
2022/10/26 00:33:38;;;;;;;16.85;9.45;;;;;;;10.18;65.76;93895.00;5052552;28;20032;-35
2022/10/26 00:36:04;;;;;;;33.22;15.15;;;;;;;10.18;65.33;93897.75;5052102;28;20413;-35
2022/10/26 00:38:29;;;;;;;37.72;16.17;;;;;;;9.92;66.32;93895.03;5052226;28;20028;-35
2022/10/26 00:40:55;;;;;;;31.77;15.25;;;;;;;9.83;67.27;93898.97;5052330;28;20630;-35
2022/10/26 00:43:20;;;;;;;26.98;14.07;;;;;;;9.89;67.54;93898.88;5052192;28;20477;-35
2022/10/26 00:45:48;;;;;;;30.27;14.43;;;;;;;9.81;68.16;93896.03;5051871;28;20753;-35
2022/10/26 00:48:22;;;;;;;27.08;11.82;;;;;;;9.78;68.04;93899.88;5034386;28;20020;-35
2022/10/26 00:50:48;;;;;;;24.15;11.15;;;;;;;9.76;67.98;93898.91;5034067;28;20517;-36
2022/10/26 00:53:14;;;;;;;20.02;11.07;;;;;;;9.65;67.68;93905.38;5051569;28;20029;-35
2022/10/26 00:55:43;;;;;;;20.80;11.07;;;;;;;9.81;67.79;93898.78;5051608;28;20031;-35
2022/10/26 00:58:09;;;;;;;32.13;13.45;;;;;;;9.82;66.80;93903.03;5034093;28;20029;-35
2022/10/26 01:00:35;;;;;;;40.85;18.27;;;;;;;9.50;67.26;93896.16;5033892;28;20051;-35
2022/10/26 01:03:04;;;;;;;41.78;17.05;;;;;;;9.67;67.22;93899.34;5051745;28;20103;-35
2022/10/26 01:05:31;;;;;;;40.08;18.02;;;;;;;9.66;66.62;93881.28;5033920;28;20040;-35
2022/10/26 01:07:57;;;;;;;27.40;15.70;;;;;;;9.66;67.42;93889.56;5033896;28;20103;-35
2022/10/26 01:10:24;;;;;;;27.77;15.57;;;;;;;9.80;66.38;93894.56;5051632;28;20021;-35
2022/10/26 01:12:50;;;;;;;28.85;14.65;;;;;;;9.67;66.68;93899.34;5047906;28;20024;-35
2022/10/26 01:15:16;;;;;;;31.88;13.95;;;;;;;9.66;66.83;93893.06;5071547;28;20038;-35
2022/10/26 01:17:44;;;;;;;29.02;15.13;;;;;;;9.59;66.99;93896.50;5053709;28;20103;-35
2022/10/26 01:20:37;;;;;;;32.38;14.23;;;;;;;9.37;67.44;93891.41;5071126;28;20511;-35
2022/10/26 01:23:23;;;;;;;28.15;14.38;;;;;;;9.48;67.10;93898.72;5071212;28;20029;-35
2022/10/26 01:26:07;;;;;;;38.10;18.38;;;;;;;9.50;66.14;93896.16;5070859;28;20432;-35
2022/10/26 01:28:47;;;;;;;39.33;18.30;;;;;;;9.45;65.96;93886.72;5066724;28;20412;-36
2022/10/26 01:31:16;;;;;;;31.52;17.92;;;;;;;9.52;66.35;93893.63;5033256;28;20027;-36
2022/10/26 01:33:47;;;;;;;;;;;;;;;9.45;66.40;93891.50;5051864;28;20056;-35
2022/10/26 01:36:33;;;;;;;40.90;16.77;;;;;;;9.11;67.02;93896.91;5051198;28;19931;-36
2022/10/26 01:39:14;;;;;;;35.60;14.63;;;;;;;9.05;66.62;93899.75;5050521;28;20040;-35
2022/10/26 01:41:52;;;;;;;33.20;14.13;;;;;;;8.93;67.91;93894.97;5051119;28;20024;-35
2022/10/26 01:44:22;;;;;;;28.65;11.77;;;;;;;8.85;68.36;93900.38;5032976;28;20029;-35
2022/10/26 01:46:50;;;;;;;21.42;9.20;;;;;;;8.72;68.32;93889.31;5032869;28;20021;-35
2022/10/26 01:49:19;;;;;;;27.40;9.88;;;;;;;8.84;68.17;93890.59;5033053;28;20514;-35
2022/10/26 01:51:46;;;;;;;21.40;9.38;;;;;;;8.70;68.88;93889.13;5033263;28;20502;-35
2022/10/26 01:54:12;;;;;;;16.25;8.85;;;;;;;8.67;69.65;93889.41;5050597;28;20021;-35
2022/10/26 01:56:39;;;;;;;19.10;8.40;;;;;;;8.65;69.95;93878.94;5050507;28;20024;-35
2022/10/26 01:59:25;;;;;;;16.83;7.57;;;;;;;8.75;69.26;93880.00;5050622;28;20040;-35
2022/10/26 02:01:50;;;;;;;37.15;15.63;;;;;;;8.79;67.05;93877.66;5050692;28;20036;-35
2022/10/26 02:04:53;;;;;;;29.50;11.82;;;;;;;8.56;67.22;93889.59;5049615;28;20127;-35
2022/10/26 02:07:33;;;;;;;14.20;8.07;;;;;;;8.51;67.70;93888.41;5050708;28;20040;-35
2022/10/26 02:10:04;;;;;;;18.58;6.78;;;;;;;8.39;68.57;93885.09;5050404;28;20080;-35
2022/10/26 02:12:49;;;;;;;17.35;7.78;;;;;;;8.52;68.03;93889.16;5032555;28;20024;-35
2022/10/26 02:15:20;;;;;;;16.52;7.30;;;;;;;8.43;68.49;93887.53;5050597;28;20029;-35
2022/10/26 02:18:13;;;;;;;16.50;8.80;;;;;;;8.41;68.38;93892.81;5049529;28;20021;-35
2022/10/26 02:20:43;;;;;;;18.88;8.13;;;;;;;8.57;68.44;93891.81;5031180;28;20120;-35
2022/10/26 02:23:09;;;;;;;18.23;6.93;;;;;;;8.42;69.52;93888.06;5050560;28;20033;-35
2022/10/26 02:25:39;;;;;;;12.60;6.63;;;;;;;8.52;69.79;93892.66;5056949;28;20089;-35
2022/10/26 02:28:09;;;;;;;11.63;7.00;;;;;;;8.39;69.83;93885.09;5051931;28;20077;-35
2022/10/26 02:30:35;;;;;;;16.88;7.05;;;;;;;8.23;70.74;93877.06;5032393;28;20099;-35
2022/10/26 02:33:02;;;;;;;19.27;6.97;;;;;;;8.51;69.46;93882.19;5032383;28;20097;-35
2022/10/26 02:35:33;;;;;;;22.20;9.05;;;;;;;8.59;68.38;93878.28;5032262;28;20017;-35
2022/10/26 02:38:00;;;;;;;30.73;11.93;;;;;;;8.32;67.89;93857.44;5032606;28;20047;-35
2022/10/26 02:40:27;;;;;;;28.98;11.18;;;;;;;8.55;67.67;93879.84;5032303;28;20051;-35
2022/10/26 02:42:56;;;;;;;18.63;9.55;;;;;;;8.34;68.60;93890.69;5050027;28;20519;-35
2022/10/26 02:45:32;;;;;;;12.57;6.33;;;;;;;8.16;68.85;93891.44;5032504;28;20417;-35
2022/10/26 02:47:57;;;;;;;12.63;6.32;;;;;;;8.21;68.43;93896.84;5032551;28;20021;-35
2022/10/26 02:50:31;;;;;;;10.93;5.65;;;;;;;8.17;68.43;93892.91;5050208;28;20378;-35
2022/10/26 02:53:21;;;;;;;7.80;5.07;;;;;;;8.18;68.28;93886.91;5050010;28;20025;-35
2022/10/26 02:55:48;;;;;;;9.27;4.95;;;;;;;7.85;69.13;93889.38;5032228;28;20506;-35
2022/10/26 02:58:18;;;;;;;23.50;12.60;;;;;;;7.82;68.78;93904.16;5032398;28;20074;-35
2022/10/26 03:00:45;;;;;;;19.48;10.55;;;;;;;7.94;68.59;93895.25;5032194;28;20078;-35
2022/10/26 03:03:10;;;;;;;22.50;11.13;;;;;;;7.94;68.94;93905.50;5050030;28;20020;-35
2022/10/26 03:05:40;;;;;;;17.02;9.70;;;;;;;7.96;69.09;93900.22;5066175;28;20421;-35
2022/10/26 03:08:06;;;;;;;17.23;9.07;;;;;;;7.99;69.24;93896.44;5051919;28;20549;-35
2022/10/26 03:10:32;;;;;;;17.35;9.38;;;;;;;7.80;69.79;93903.91;5070295;28;20024;-35
2022/10/26 03:12:58;;;;;;;14.77;6.15;;;;;;;7.91;69.70;93906.53;5069790;28;20028;-35
2022/10/26 03:15:23;;;;;;;12.43;7.40;;;;;;;7.67;70.53;93903.84;5071139;28;20028;-35
2022/10/26 03:17:49;;;;;;;14.82;7.22;;;;;;;7.74;70.10;93915.00;5073519;28;20031;-35
2022/10/26 03:20:14;;;;;;;11.02;6.88;;;;;;;7.54;71.04;93918.97;5073434;28;20081;-35
2022/10/26 03:22:40;;;;;;;20.77;8.63;;;;;;;7.78;69.36;93920.94;5073494;28;20016;-35
2022/10/26 03:25:06;;;;;;;27.42;13.07;;;;;;;7.74;68.39;93914.25;5070354;28;20725;-35
2022/10/26 03:27:31;;;;;;;35.05;15.00;;;;;;;7.66;68.15;93914.09;5053165;28;20493;-35
2022/10/26 03:29:56;;;;;;;32.55;12.82;;;;;;;7.81;67.88;93914.41;5068997;28;20033;-35
2022/10/26 03:32:22;;;;;;;31.70;13.48;;;;;;;7.86;68.04;93921.09;5073170;28;20028;-35
2022/10/26 03:34:47;;;;;;;25.13;12.25;;;;;;;7.81;67.79;93917.16;5073203;28;20031;-35
2022/10/26 03:37:13;;;;;;;19.77;11.52;;;;;;;7.68;68.17;93922.56;5073178;28;20118;-35
2022/10/26 03:39:38;;;;;;;23.08;10.45;;;;;;;7.68;68.15;93919.06;5073094;28;20017;-35
2022/10/26 03:42:04;;;;;;;26.17;11.80;;;;;;;7.57;68.18;93925.44;5073446;28;20082;-35
2022/10/26 03:44:30;;;;;;;19.75;11.15;;;;;;;7.60;67.59;93905.19;5073353;28;20017;-35
2022/10/26 03:46:55;;;;;;;22.58;10.32;;;;;;;7.62;67.85;93924.66;5055485;28;20503;-35
2022/10/26 03:49:21;;;;;;;25.45;10.35;;;;;;;7.55;68.01;93922.47;5073217;28;20135;-35
2022/10/26 03:51:47;;;;;;;30.73;10.57;;;;;;;7.48;68.01;93937.53;5073195;28;20028;-35
2022/10/26 03:54:12;;;;;;;23.38;10.32;;;;;;;7.48;68.00;93928.53;5072939;28;20024;-35
2022/10/26 03:56:37;;;;;;;26.20;10.05;;;;;;;7.63;67.51;93929.63;5065935;28;20021;-35
2022/10/26 03:59:03;;;;;;;27.08;9.70;;;;;;;7.46;68.02;93934.56;5052787;28;20029;-35
2022/10/26 04:01:28;;;;;;;20.02;9.40;;;;;;;7.22;68.45;93929.09;5061671;28;20086;-35
2022/10/26 04:03:54;;;;;;;22.98;10.77;;;;;;;7.06;69.41;93929.25;5052537;28;20052;-35
2022/10/26 04:06:19;;;;;;;21.00;8.38;;;;;;;7.00;69.70;93932.03;5052679;28;20108;-35
2022/10/26 04:08:45;;;;;;;22.00;9.80;;;;;;;7.01;69.52;93928.06;5052685;28;20020;-35
2022/10/26 04:11:10;;;;;;;26.55;9.90;;;;;;;6.82;69.43;93933.44;5052595;28;20040;-35
2022/10/26 04:13:36;;;;;;;25.13;11.50;;;;;;;7.01;68.84;93939.03;5052575;28;20021;-35
2022/10/26 04:16:01;;;;;;;30.90;11.70;;;;;;;7.17;68.40;93929.88;5052450;28;20028;-35
2022/10/26 04:18:27;;;;;;;26.83;10.77;;;;;;;6.93;69.13;93932.59;5052425;28;20034;-35
2022/10/26 04:20:52;;;;;;;20.45;10.15;;;;;;;6.82;69.52;93930.72;5052619;28;20017;-35
2022/10/26 04:23:18;;;;;;;44.22;13.88;;;;;;;6.75;68.96;93901.09;5052621;28;20024;-35
2022/10/26 04:25:44;;;;;;;39.17;12.88;;;;;;;6.92;69.25;93922.16;5060308;28;20016;-35
2022/10/26 04:28:10;;;;;;;32.92;11.38;;;;;;;6.85;69.20;93931.69;5070405;28;20028;-35
2022/10/26 04:30:37;;;;;;;37.85;17.92;;;;;;;6.75;69.59;93923.06;5052263;28;20547;-35
2022/10/26 04:33:03;;;;;;;38.22;18.95;;;;;;;6.85;68.66;93932.44;5052146;28;20166;-35
2022/10/26 04:35:29;;;;;;;17.27;10.30;;;;;;;6.84;68.51;93932.97;5052434;28;20029;-35
2022/10/26 04:38:02;;;;;;;21.02;8.15;;;;;;;6.67;69.18;93935.09;5052337;28;20469;-35
2022/10/26 04:40:29;;;;;;;17.10;8.45;;;;;;;6.68;69.19;93936.56;5052017;28;20040;-35
2022/10/26 04:42:55;;;;;;;16.45;8.43;;;;;;;6.63;69.50;93931.88;5052286;28;20021;-35
2022/10/26 04:45:21;;;;;;;17.27;8.88;;;;;;;6.56;69.43;93929.72;5051926;28;20032;-35
2022/10/26 04:47:46;;;;;;;41.88;17.38;;;;;;;6.82;69.37;93943.72;5052183;28;20032;-35
2022/10/26 04:50:13;;;;;;;39.30;18.40;;;;;;;6.76;68.68;93953.97;5033947;28;20485;-35
2022/10/26 04:52:39;;;;;;;40.83;19.13;;;;;;;6.84;68.10;93955.63;5051837;28;20575;-35
2022/10/26 04:55:05;;;;;;;49.50;23.35;;;;;;;6.67;69.33;93954.31;5051744;28;20038;-35
2022/10/26 04:57:35;;;;;;;80.15;35.95;;;;;;;6.58;69.96;93954.63;5051627;28;20462;-35
2022/10/26 05:00:00;;;;;;;;;;;;;;;6.58;70.56;93954.63;5052290;28;20040;-35
2022/10/26 05:02:27;;;;;;;87.28;35.55;;;;;;;6.52;71.09;93959.41;5063896;28;19912;-35
2022/10/26 05:04:52;;;;;;;70.43;31.67;;;;;;;6.71;70.53;93954.78;5071296;28;20072;-35
2022/10/26 05:07:18;;;;;;;62.97;27.23;;;;;;;6.58;71.15;93960.13;5071663;28;20060;-35
2022/10/26 05:09:43;;;;;;;61.45;27.85;;;;;;;6.52;71.30;93964.91;5071653;28;20032;-35
2022/10/26 05:12:09;;;;;;;69.38;28.10;;;;;;;6.64;70.87;93966.28;5071634;28;20029;-35
2022/10/26 05:14:34;;;;;;;56.13;26.08;;;;;;;6.57;70.75;93969.59;5071569;28;20477;-35
2022/10/26 05:17:00;;;;;;;43.97;19.30;;;;;;;6.48;70.54;93961.66;5071565;28;20466;-35
2022/10/26 05:19:25;;;;;;;33.97;15.27;;;;;;;6.47;70.32;93980.16;5071267;28;20056;-35
2022/10/26 05:21:52;;;;;;;27.33;13.43;;;;;;;6.45;70.33;93973.69;5071130;28;20020;-35
2022/10/26 05:24:18;;;;;;;31.15;11.13;;;;;;;6.58;70.18;93968.34;5071410;28;20071;-35
2022/10/26 05:26:43;;;;;;;21.58;10.82;;;;;;;6.55;70.30;93978.34;5054055;28;20497;-35
2022/10/26 05:29:08;;;;;;;42.53;19.15;;;;;;;6.26;71.97;93961.84;5060486;28;20027;-35
2022/10/26 05:31:34;;;;;;;69.95;28.13;;;;;;;6.40;72.23;93986.16;5071230;28;20028;-35
2022/10/26 05:33:59;;;;;;;61.50;26.88;;;;;;;6.63;71.43;93992.22;5071314;28;20481;-35
2022/10/26 05:36:25;;;;;;;64.30;30.02;;;;;;;6.72;71.28;93986.44;5071247;28;20450;-35
2022/10/26 05:38:50;;;;;;;64.60;27.17;;;;;;;6.82;70.93;93985.59;5071116;28;20024;-35
2022/10/26 05:41:16;;;;;;;88.68;33.22;;;;;;;6.92;71.03;93985.28;5071130;28;20039;-35
2022/10/26 05:43:41;;;;;;;62.47;32.22;;;;;;;6.96;71.26;93997.47;5070818;28;20020;-35
2022/10/26 05:46:06;;;;;;;62.58;28.27;;;;;;;7.07;70.93;93993.88;5070980;28;20413;-36
2022/10/26 05:48:32;;;;;;;63.75;29.80;;;;;;;7.31;69.90;93994.66;5070961;28;20385;-35
2022/10/26 05:50:59;;;;;;;71.25;33.17;;;;;;;7.36;69.86;93998.63;5070737;28;20028;-35
2022/10/26 05:53:25;;;;;;;66.25;30.60;;;;;;;7.15;70.92;94011.28;5061571;28;20033;-35
2022/10/26 05:55:50;;;;;;;67.20;27.42;;;;;;;7.32;70.33;94006.41;5051143;28;20078;-35
2022/10/26 05:58:17;;;;;;;73.22;27.98;;;;;;;7.26;70.71;94006.44;5070788;28;20055;-35
2022/10/26 06:01:10;;;;;;;54.80;23.10;;;;;;;7.30;71.04;94004.16;5070822;28;20028;-35
2022/10/26 06:04:01;;;;;;;80.45;23.45;;;;;;;7.31;71.11;94011.13;5050599;28;20401;-35
2022/10/26 06:06:31;;;;;;;43.83;18.20;;;;;;;7.54;70.52;94009.66;5032806;28;20520;-35
2022/10/26 06:08:58;;;;;;;42.05;19.17;;;;;;;7.52;70.74;94001.19;5050422;28;20053;-35
2022/10/26 06:11:24;;;;;;;44.88;18.92;;;;;;;7.56;71.05;94015.38;5050701;28;20031;-35
2022/10/26 06:13:50;;;;;;;71.95;27.00;;;;;;;7.65;71.68;94014.28;5050324;28;20032;-35
2022/10/26 06:16:34;;;;;;;114.05;47.00;;;;;;;7.78;71.70;94011.63;5050623;28;20223;-35
2022/10/26 06:19:17;;;;;;;105.20;46.85;;;;;;;7.94;72.10;94012.72;5050272;28;20033;-35
2022/10/26 06:21:55;;;;;;;97.20;40.75;;;;;;;8.14;72.00;94017.72;5050315;28;20029;-35
2022/10/26 06:24:23;;;;;;;84.20;32.30;;;;;;;8.40;71.70;94017.91;5032463;28;20029;-35
2022/10/26 06:26:58;;;;;;;75.95;30.80;;;;;;;8.96;70.45;94017.84;5063401;28;20045;-35
2022/10/26 06:29:48;;;;;;;27.98;13.60;;;;;;;9.78;69.21;94015.69;5070176;28;20028;-36
2022/10/26 06:32:15;;;;;;;45.03;18.25;;;;;;;10.68;65.81;94017.41;5070152;28;20038;-36
2022/10/26 06:34:44;;;;;;;47.58;19.00;;;;;;;11.59;63.16;94027.25;5052573;28;20051;-36
2022/10/26 06:37:10;;;;;;;31.65;13.60;;;;;;;12.42;61.65;94022.28;5070388;28;20021;-36
2022/10/26 06:39:39;;;;;;;31.33;15.80;;;;;;;12.98;59.24;94021.38;5070152;28;20527;-36
2022/10/26 06:42:05;;;;;;;30.17;15.68;;;;;;;13.74;58.03;94034.06;5052573;28;20032;-36
2022/10/26 06:44:32;;;;;;;49.83;26.70;;;;;;;14.52;56.55;94032.13;5070060;28;20198;-36
2022/10/26 06:47:12;;;;;;;40.67;22.90;;;;;;;15.69;53.93;94026.31;5069986;28;20086;-36
2022/10/26 06:50:04;;;;;;;35.22;18.50;;;;;;;17.31;50.17;94023.47;5061758;28;20116;-36
2022/10/26 06:52:38;;;;;;;21.38;13.18;;;;;;;19.11;46.20;94021.69;5054009;28;20147;-37
2022/10/26 06:55:04;;;;;;;25.92;13.00;;;;;;;20.49;42.58;94021.47;5054014;28;20036;-36
2022/10/26 06:57:34;;;;;;;20.95;13.38;;;;;;;21.26;40.51;94037.72;5054187;28;20104;-36
2022/10/26 07:00:26;;;;;;;23.00;13.30;;;;;;;22.38;38.66;94022.25;5036475;28;20110;-36
2022/10/26 07:02:52;;;;;;;17.70;12.77;;;;;;;23.37;35.72;94025.16;5054047;28;20044;-37
2022/10/26 07:05:17;;;;;;;19.92;13.05;;;;;;;24.08;34.97;94030.50;5053760;28;20680;-35
2022/10/26 07:07:44;;;;;;;15.82;11.45;;;;;;;24.48;34.77;94020.63;5053671;28;20144;-34
2022/10/26 07:10:11;;;;;;;21.88;11.15;;;;;;;25.13;33.34;94024.63;5054049;28;20417;-35
2022/10/26 07:12:37;;;;;;;24.73;11.82;;;;;;;25.93;31.82;94024.19;5054000;28;20039;-35
2022/10/26 07:15:04;;;;;;;40.30;11.20;;;;;;;26.20;31.54;94026.91;5053592;28;20025;-35
2022/10/26 07:17:29;;;;;;;10.50;7.82;;;;;;;26.59;30.76;94026.50;5053631;28;20031;-35
2022/10/26 07:19:55;;;;;;;8.20;5.25;;;;;;;27.04;30.51;94030.63;5053528;28;20021;-35
2022/10/26 07:22:21;;;;;;;7.10;5.57;;;;;;;27.33;30.16;94014.78;5053757;28;20024;-35
2022/10/26 07:24:50;;;;;;;8.30;5.05;;;;;;;27.36;30.48;94022.00;5053421;28;20385;-35
2022/10/26 07:27:16;;;;;;;11.60;5.18;;;;;;;27.86;30.04;94015.50;5053283;28;20029;-35
2022/10/26 07:29:41;;;;;;;9.07;4.57;;;;;;;27.97;30.01;94020.22;5067197;28;20055;-35
2022/10/26 07:32:07;;;;;;;5.63;3.45;;;;;;;27.69;30.25;94021.94;5073634;28;20028;-35
2022/10/26 07:34:33;;;;;;;8.20;3.63;;;;;;;28.21;28.88;94009.06;5073254;28;20052;-35
2022/10/26 07:36:59;;;;;;;7.03;3.85;;;;;;;28.00;29.53;94021.03;5073558;28;20012;-35
2022/10/26 07:39:24;;;;;;;10.77;4.18;;;;;;;27.78;29.78;94013.09;5073367;28;20506;-35
2022/10/26 07:41:50;;;;;;;15.95;5.13;;;;;;;28.25;29.58;94012.78;5073129;28;20032;-35
2022/10/26 07:44:15;;;;;;;6.20;4.15;;;;;;;28.33;28.52;94013.06;5073341;28;20025;-35
2022/10/26 07:46:41;;;;;;;5.88;3.75;;;;;;;28.51;28.42;94019.41;5057629;28;20032;-35
2022/10/26 07:49:06;;;;;;;8.77;4.55;;;;;;;28.82;28.31;94015.56;5052987;28;20071;-35
2022/10/26 07:51:32;;;;;;;8.15;4.43;;;;;;;29.13;28.27;94012.38;5053197;28;20032;-35
2022/10/26 07:53:57;;;;;;;9.07;5.18;;;;;;;28.84;28.83;94003.53;5053225;28;20023;-35
2022/10/26 07:56:22;;;;;;;8.27;5.28;;;;;;;29.00;28.56;94006.94;5058070;28;20012;-35
2022/10/26 07:58:51;;;;;;;9.77;5.38;;;;;;;28.49;28.47;94002.31;5072818;28;20028;-35
2022/10/26 08:01:17;;;;;;;8.10;5.30;;;;;;;27.92;29.26;94000.81;5069203;28;20035;-35
2022/10/26 08:03:42;;;;;;;11.98;5.43;;;;;;;28.66;29.48;94000.06;5052331;28;20045;-35
2022/10/26 08:06:09;;;;;;;13.20;5.63;;;;;;;29.50;27.74;93997.25;5052942;28;20047;-35
2022/10/26 08:08:35;;;;;;;11.98;5.15;;;;;;;29.53;27.38;93995.22;5052838;28;20051;-35
2022/10/26 08:11:01;;;;;;;10.43;4.45;;;;;;;29.09;27.90;93997.28;5052620;28;20021;-35
2022/10/26 08:13:27;;;;;;;10.75;4.53;;;;;;;30.00;26.44;93986.75;5052502;28;20035;-36
2022/10/26 08:16:00;;;;;;;6.45;4.15;;;;;;;29.98;26.12;93990.25;5052735;28;20025;-35
2022/10/26 08:18:26;;;;;;;7.55;4.28;;;;;;;29.32;27.62;93993.09;5052427;28;20025;-35
2022/10/26 08:20:51;;;;;;;12.38;4.70;;;;;;;29.08;27.99;93988.06;5052677;28;20029;-35
2022/10/26 08:23:17;;;;;;;5.80;3.38;;;;;;;29.44;26.51;93988.53;5052325;28;20025;-35
2022/10/26 08:25:42;;;;;;;6.43;3.97;;;;;;;29.08;27.30;93993.75;5060052;28;20028;-36
2022/10/26 08:28:08;;;;;;;6.75;4.18;;;;;;;29.80;25.86;93992.53;5071579;28;20032;-35
2022/10/26 08:30:33;;;;;;;4.88;3.03;;;;;;;30.20;26.26;93989.47;5034405;28;20068;-34
2022/10/26 08:33:04;;;;;;;6.75;3.92;;;;;;;30.32;25.99;93984.16;5052475;28;20381;-35
2022/10/26 08:35:30;;;;;;;7.63;4.03;;;;;;;30.45;25.75;93988.81;5052477;28;20543;-35
2022/10/26 08:37:55;;;;;;;15.30;3.80;;;;;;;30.70;25.59;93991.66;5052064;28;20029;-35
2022/10/26 08:40:32;;;;;;;5.32;2.05;;;;;;;31.09;23.31;93995.56;5052114;28;20021;-35
2022/10/26 08:43:21;;;;;;;6.30;2.10;;;;;;;31.45;23.42;93995.78;5067429;28;20031;-35
2022/10/26 08:45:58;;;;;;;3.10;2.13;;;;;;;30.89;23.75;93992.16;5054380;28;20109;-35
2022/10/26 08:48:27;;;;;;;4.07;1.80;;;;;;;30.44;24.17;93993.78;5071892;28;20028;-35
2022/10/26 08:51:00;;;;;;;12.02;2.63;;;;;;;30.52;23.99;93982.59;5072144;28;20588;-35
2022/10/26 08:53:28;;;;;;;38.53;4.18;;;;;;;30.86;23.17;93996.34;5071931;28;20028;-35
2022/10/26 08:56:23;;;;;;;10.65;2.13;;;;;;;30.88;23.15;93999.28;5070641;28;20039;-35
2022/10/26 08:59:01;;;;;;;6.68;2.00;;;;;;;31.19;23.06;93987.97;5050291;28;20120;-35
2022/10/26 09:01:30;;;;;;;3.40;2.28;;;;;;;30.88;23.36;93994.31;5051616;28;20058;-35
2022/10/26 09:03:55;;;;;;;;;;;;;;;31.03;22.80;93996.13;5051971;28;20517;-35
2022/10/26 09:06:26;;;;;;;2.90;2.00;;;;;;;30.92;23.42;93991.56;5033777;28;19967;-35
2022/10/26 09:09:06;;;;;;;4.63;2.25;;;;;;;31.16;23.22;93995.06;5051771;28;20473;-35
2022/10/26 09:11:40;;;;;;;6.25;1.92;;;;;;;31.18;23.12;93992.25;5051524;28;20047;-35
2022/10/26 09:14:18;;;;;;;4.40;1.63;;;;;;;31.12;22.63;93988.53;5051330;28;20025;-35
2022/10/26 09:17:13;;;;;;;14.18;2.42;;;;;;;30.85;22.92;93978.50;5051706;28;20075;-34
2022/10/26 09:19:58;;;;;;;2.45;1.90;;;;;;;30.68;23.68;93983.06;5051600;28;20025;-34
2022/10/26 09:22:43;;;;;;;4.70;2.25;;;;;;;30.61;23.51;93986.41;5051546;28;20032;-35
2022/10/26 09:25:18;;;;;;;5.18;1.95;;;;;;;30.63;23.68;93983.59;5049973;28;20492;-34
2022/10/26 09:27:47;;;;;;;7.60;1.90;;;;;;;30.44;24.27;93975.94;5051132;28;20054;-34
2022/10/26 09:30:16;;;;;;;2.85;1.70;;;;;;;30.38;23.79;93979.38;5051158;28;20025;-35
2022/10/26 09:32:46;;;;;;;3.83;2.30;;;;;;;30.48;23.59;93985.34;5070995;28;20029;-34
2022/10/26 09:35:35;;;;;;;4.25;2.15;;;;;;;30.58;24.06;93982.06;5071131;28;20055;-34
2022/10/26 09:38:36;;;;;;;8.50;2.40;;;;;;;30.62;23.73;93982.16;5065513;28;20506;-34
2022/10/26 09:41:07;;;;;;;7.63;3.28;;;;;;;30.55;23.92;93975.56;5000456;28;20558;-35
2022/10/26 09:43:46;;;;;;;4.03;1.98;;;;;;;30.65;23.60;93983.66;5050976;28;20501;-35
2022/10/26 09:46:15;;;;;;;4.45;2.00;;;;;;;30.43;23.42;93980.91;5051283;28;20025;-34
2022/10/26 09:48:55;;;;;;;7.55;4.65;;;;;;;30.60;23.19;93979.25;5033477;28;20032;-34
2022/10/26 09:51:22;;;;;;;4.22;2.20;;;;;;;30.77;23.21;93981.16;5050869;28;20104;-34
2022/10/26 09:53:48;;;;;;;6.80;1.65;;;;;;;30.69;22.77;93984.50;5032940;28;20415;-34
2022/10/26 09:56:14;;;;;;;7.85;2.10;;;;;;;30.59;22.10;93980.66;5036877;28;20028;-34
2022/10/26 09:58:43;;;;;;;3.40;1.85;;;;;;;30.29;22.41;93979.75;5070567;28;20024;-35
2022/10/26 10:01:28;;;;;;;5.22;1.90;;;;;;;30.79;22.20;93978.34;5068755;28;20024;-34
2022/10/26 10:04:12;;;;;;;6.60;1.80;;;;;;;31.10;22.00;93985.63;5050491;28;20103;-34
2022/10/26 10:06:38;;;;;;;37.20;29.40;;;;;;;30.91;22.95;93980.81;5050403;28;20033;-34
2022/10/26 10:09:10;;;;;;;16.02;12.35;;;;;;;31.30;22.48;93971.84;5050470;28;20111;-34
2022/10/26 10:11:39;;;;;;;4.32;2.53;;;;;;;31.22;22.47;93972.38;5050625;28;20034;-34
2022/10/26 10:14:12;;;;;;;47.10;5.07;;;;;;;31.69;21.88;93973.53;5050611;28;20101;-34
2022/10/26 10:16:37;;;;;;;11.77;5.32;;;;;;;31.81;22.45;93971.69;5032890;28;20094;-34
2022/10/26 10:19:03;;;;;;;18.70;11.02;;;;;;;31.73;22.15;93971.47;5050313;28;20485;-34
2022/10/26 10:21:42;;;;;;;3.58;1.60;;;;;;;31.82;21.33;93972.41;5032556;28;20031;-34
2022/10/26 10:24:30;;;;;;;10.43;2.30;;;;;;;31.72;21.84;93969.31;5050266;28;20045;-34
2022/10/26 10:27:04;;;;;;;2.93;2.20;;;;;;;31.82;21.83;93975.25;5068373;28;20463;-34
2022/10/26 10:29:45;;;;;;;16.38;14.63;;;;;;;31.55;22.36;93964.63;5058196;28;20029;-35
2022/10/26 10:32:21;;;;;;;6.35;3.08;;;;;;;31.83;21.67;93965.28;5050153;28;20091;-34
2022/10/26 10:34:48;;;;;;;5.57;3.17;;;;;;;31.85;22.09;93953.91;5059961;28;20032;-34
2022/10/26 10:37:29;;;;;;;3.40;1.58;;;;;;;31.16;21.82;93952.25;5070406;28;20048;-35
2022/10/26 10:40:03;;;;;;;6.53;4.60;;;;;;;31.82;21.91;93952.41;5070094;28;20025;-34
2022/10/26 10:42:34;;;;;;;5.72;2.17;;;;;;;32.04;20.84;93947.22;5052514;28;20033;-35
2022/10/26 10:45:00;;;;;;;9.52;2.10;;;;;;;32.06;21.12;93950.13;5052330;28;20028;-35
2022/10/26 10:47:36;;;;;;;4.07;1.33;;;;;;;32.54;20.40;93948.28;5069901;28;20413;-34
2022/10/26 10:50:03;;;;;;;3.55;2.00;;;;;;;32.64;20.59;93948.47;5069994;28;20025;-34
2022/10/26 10:52:31;;;;;;;2.58;1.60;;;;;;;32.84;20.57;93946.00;5068768;28;20038;-34
2022/10/26 10:55:23;;;;;;;4.93;2.17;;;;;;;33.09;20.11;93935.03;5070218;28;20108;-35
2022/10/26 10:57:55;;;;;;;2.45;1.80;;;;;;;33.02;19.60;93944.91;5052926;28;20052;-34
2022/10/26 11:00:21;;;;;;;6.25;2.50;;;;;;;32.88;19.70;93936.78;5032231;28;20025;-35
2022/10/26 11:03:21;;;;;;;2.03;1.45;;;;;;;32.26;19.80;93946.97;5032008;28;20060;-34
2022/10/26 11:06:15;;;;;;;5.55;1.63;;;;;;;32.28;20.18;93939.16;5032058;28;20045;-35
2022/10/26 11:08:58;;;;;;;4.00;1.63;;;;;;;32.42;20.04;93939.44;5049906;28;20447;-34
2022/10/26 11:11:32;;;;;;;4.00;1.90;;;;;;;32.01;20.68;93932.16;5050175;28;20032;-34
2022/10/26 11:14:07;;;;;;;3.63;2.28;;;;;;;31.41;21.50;93934.34;5048674;28;20385;-34
2022/10/26 11:16:37;;;;;;;2.65;1.92;;;;;;;30.80;21.91;93928.47;5032099;28;20029;-34
2022/10/26 11:20:04;;;;;;;2.33;1.65;;;;;;;30.36;21.75;93933.00;5032105;28;20048;-33
2022/10/26 11:22:34;;;;;;;6.40;5.00;;;;;;;30.75;21.35;93937.59;4965885;28;20078;-34
2022/10/26 11:25:16;;;;;;;7.75;5.05;;;;;;;30.91;21.46;93924.50;5049726;28;20041;-34
2022/10/26 11:27:49;;;;;;;5.57;3.42;;;;;;;31.19;21.54;93922.38;5049615;28;20067;-34
2022/10/26 11:30:19;;;;;;;1.80;1.35;;;;;;;31.54;21.52;93931.78;5046825;28;20179;-34
2022/10/26 11:33:03;;;;;;;4.90;2.40;;;;;;;31.56;21.08;93929.69;5049511;28;20037;-34
2022/10/26 11:35:33;;;;;;;6.55;3.72;;;;;;;31.33;21.33;93933.41;5032221;28;20040;-34
2022/10/26 11:38:04;;;;;;;3.35;2.30;;;;;;;31.06;22.16;93934.88;5035534;28;20017;-34
2022/10/26 11:40:44;;;;;;;3.40;2.28;;;;;;;31.20;20.35;93932.38;5053314;28;20401;-34
2022/10/26 11:43:29;;;;;;;12.52;11.20;;;;;;;30.70;20.97;93933.91;5035716;28;20478;-34
2022/10/26 11:46:12;;;;;;;3.50;2.80;;;;;;;30.57;21.64;93929.28;5052992;28;20032;-34